sensor_id;sensor_type;location;lat;lon;timestamp;pressure;altitude;pressure_sealevel;temperature
9985;BMP180;16737;50.932;6.780;2024-03-02T00:01:37;98743.00;;;11.90
9985;BMP180;16737;50.932;6.780;2024-03-02T00:04:05;98738.00;;;11.90
9985;BMP180;16737;50.932;6.780;2024-03-02T00:06:33;98742.00;;;11.90
9985;BMP180;16737;50.932;6.780;2024-03-02T00:09:00;98735.00;;;11.80
9985;BMP180;16737;50.932;6.780;2024-03-02T00:11:27;98731.00;;;11.90
9985;BMP180;16737;50.932;6.780;2024-03-02T00:13:54;98733.00;;;11.90
9985;BMP180;16737;50.932;6.780;2024-03-02T00:16:23;98734.00;;;11.80
9985;BMP180;16737;50.932;6.780;2024-03-02T00:18:50;98730.00;;;11.80
9985;BMP180;16737;50.932;6.780;2024-03-02T00:21:18;98728.00;;;11.80
9985;BMP180;16737;50.932;6.780;2024-03-02T00:23:48;98720.00;;;11.80
9985;BMP180;16737;50.932;6.780;2024-03-02T00:26:17;98723.00;;;11.80
9985;BMP180;16737;50.932;6.780;2024-03-02T00:28:44;98725.00;;;11.80
9985;BMP180;16737;50.932;6.780;2024-03-02T00:31:13;98721.00;;;11.80
9985;BMP180;16737;50.932;6.780;2024-03-02T00:33:44;98730.00;;;11.80
9985;BMP180;16737;50.932;6.780;2024-03-02T00:36:14;98722.00;;;11.80
9985;BMP180;16737;50.932;6.780;2024-03-02T00:38:46;98709.00;;;11.80
9985;BMP180;16737;50.932;6.780;2024-03-02T00:41:20;98717.00;;;11.90
9985;BMP180;16737;50.932;6.780;2024-03-02T00:43:58;98718.00;;;11.90
9985;BMP180;16737;50.932;6.780;2024-03-02T00:46:27;98702.00;;;11.90
9985;BMP180;16737;50.932;6.780;2024-03-02T00:48:59;98716.00;;;11.90
9985;BMP180;16737;50.932;6.780;2024-03-02T00:51:28;98712.00;;;11.90
9985;BMP180;16737;50.932;6.780;2024-03-02T00:54:00;98719.00;;;11.90
9985;BMP180;16737;50.932;6.780;2024-03-02T00:56:30;98715.00;;;11.90
9985;BMP180;16737;50.932;6.780;2024-03-02T00:58:57;98709.00;;;11.90
9985;BMP180;16737;50.932;6.780;2024-03-02T01:01:24;98704.00;;;11.90
9985;BMP180;16737;50.932;6.780;2024-03-02T01:03:51;98711.00;;;11.90
9985;BMP180;16737;50.932;6.780;2024-03-02T01:06:20;98709.00;;;11.90
9985;BMP180;16737;50.932;6.780;2024-03-02T01:08:47;98707.00;;;11.90
9985;BMP180;16737;50.932;6.780;2024-03-02T01:11:17;98713.00;;;11.90
9985;BMP180;16737;50.932;6.780;2024-03-02T01:13:44;98711.00;;;11.90
9985;BMP180;16737;50.932;6.780;2024-03-02T01:16:11;98711.00;;;11.90
9985;BMP180;16737;50.932;6.780;2024-03-02T01:18:39;98697.00;;;11.80
9985;BMP180;16737;50.932;6.780;2024-03-02T01:21:06;98654.00;;;11.80
9985;BMP180;16737;50.932;6.780;2024-03-02T01:23:34;98711.00;;;11.80
9985;BMP180;16737;50.932;6.780;2024-03-02T01:26:01;98700.00;;;11.90
9985;BMP180;16737;50.932;6.780;2024-03-02T01:28:28;98704.00;;;11.90
9985;BMP180;16737;50.932;6.780;2024-03-02T01:30:55;98705.00;;;11.90
9985;BMP180;16737;50.932;6.780;2024-03-02T01:33:22;98700.00;;;11.90
9985;BMP180;16737;50.932;6.780;2024-03-02T01:35:49;98704.00;;;11.90
9985;BMP180;16737;50.932;6.780;2024-03-02T01:38:16;98698.00;;;11.90
9985;BMP180;16737;50.932;6.780;2024-03-02T01:40:44;98692.00;;;12.00
9985;BMP180;16737;50.932;6.780;2024-03-02T01:43:12;98689.00;;;12.00
9985;BMP180;16737;50.932;6.780;2024-03-02T01:45:39;98700.00;;;12.00
9985;BMP180;16737;50.932;6.780;2024-03-02T01:48:07;98696.00;;;12.00
9985;BMP180;16737;50.932;6.780;2024-03-02T01:50:35;98698.00;;;12.00
9985;BMP180;16737;50.932;6.780;2024-03-02T01:53:03;98702.00;;;12.00
9985;BMP180;16737;50.932;6.780;2024-03-02T01:55:30;98697.00;;;12.10
9985;BMP180;16737;50.932;6.780;2024-03-02T01:58:00;98694.00;;;12.10
9985;BMP180;16737;50.932;6.780;2024-03-02T02:00:28;98697.00;;;12.10
9985;BMP180;16737;50.932;6.780;2024-03-02T02:02:55;98694.00;;;12.10
9985;BMP180;16737;50.932;6.780;2024-03-02T02:05:23;98696.00;;;12.10
9985;BMP180;16737;50.932;6.780;2024-03-02T02:07:50;98689.00;;;12.10
9985;BMP180;16737;50.932;6.780;2024-03-02T02:10:17;98708.00;;;12.10
9985;BMP180;16737;50.932;6.780;2024-03-02T02:12:44;98704.00;;;12.20
9985;BMP180;16737;50.932;6.780;2024-03-02T02:15:30;98695.00;;;12.20
9985;BMP180;16737;50.932;6.780;2024-03-02T02:17:58;98702.00;;;12.20
9985;BMP180;16737;50.932;6.780;2024-03-02T02:20:26;98671.00;;;12.30
9985;BMP180;16737;50.932;6.780;2024-03-02T02:22:57;98690.00;;;12.30
9985;BMP180;16737;50.932;6.780;2024-03-02T02:25:23;98675.00;;;12.30
9985;BMP180;16737;50.932;6.780;2024-03-02T02:27:50;98687.00;;;12.40
9985;BMP180;16737;50.932;6.780;2024-03-02T02:30:20;98664.00;;;12.40
9985;BMP180;16737;50.932;6.780;2024-03-02T02:32:48;98693.00;;;12.40
9985;BMP180;16737;50.932;6.780;2024-03-02T02:35:15;98692.00;;;12.50
9985;BMP180;16737;50.932;6.780;2024-03-02T02:37:42;98704.00;;;12.50
9985;BMP180;16737;50.932;6.780;2024-03-02T02:40:12;98688.00;;;12.50
9985;BMP180;16737;50.932;6.780;2024-03-02T02:42:39;98703.00;;;12.60
9985;BMP180;16737;50.932;6.780;2024-03-02T02:45:07;98686.00;;;12.60
9985;BMP180;16737;50.932;6.780;2024-03-02T02:47:34;98690.00;;;12.60
9985;BMP180;16737;50.932;6.780;2024-03-02T02:50:02;98691.00;;;12.70
9985;BMP180;16737;50.932;6.780;2024-03-02T02:52:33;98687.00;;;12.70
9985;BMP180;16737;50.932;6.780;2024-03-02T02:55:04;98690.00;;;12.70
9985;BMP180;16737;50.932;6.780;2024-03-02T02:57:33;98700.00;;;12.70
9985;BMP180;16737;50.932;6.780;2024-03-02T03:00:05;98697.00;;;12.80
9985;BMP180;16737;50.932;6.780;2024-03-02T03:02:37;98698.00;;;12.80
9985;BMP180;16737;50.932;6.780;2024-03-02T03:05:06;98669.00;;;12.80
9985;BMP180;16737;50.932;6.780;2024-03-02T03:07:33;98706.00;;;12.80
9985;BMP180;16737;50.932;6.780;2024-03-02T03:09:59;98701.00;;;12.80
9985;BMP180;16737;50.932;6.780;2024-03-02T03:12:27;98704.00;;;12.80
9985;BMP180;16737;50.932;6.780;2024-03-02T03:14:55;98698.00;;;12.80
9985;BMP180;16737;50.932;6.780;2024-03-02T03:17:23;98714.00;;;12.80
9985;BMP180;16737;50.932;6.780;2024-03-02T03:19:50;98711.00;;;12.80
9985;BMP180;16737;50.932;6.780;2024-03-02T03:22:17;98711.00;;;12.90
9985;BMP180;16737;50.932;6.780;2024-03-02T03:24:44;98707.00;;;12.80
9985;BMP180;16737;50.932;6.780;2024-03-02T03:27:11;98712.00;;;12.90
9985;BMP180;16737;50.932;6.780;2024-03-02T03:29:38;98716.00;;;12.90
9985;BMP180;16737;50.932;6.780;2024-03-02T03:32:07;98722.00;;;12.90
9985;BMP180;16737;50.932;6.780;2024-03-02T03:34:35;98718.00;;;13.00
9985;BMP180;16737;50.932;6.780;2024-03-02T03:37:02;98718.00;;;13.00
9985;BMP180;16737;50.932;6.780;2024-03-02T03:39:29;98726.00;;;13.00
9985;BMP180;16737;50.932;6.780;2024-03-02T03:41:56;98719.00;;;13.00
9985;BMP180;16737;50.932;6.780;2024-03-02T03:44:23;98718.00;;;13.00
9985;BMP180;16737;50.932;6.780;2024-03-02T03:46:50;98713.00;;;13.00
9985;BMP180;16737;50.932;6.780;2024-03-02T03:49:18;98705.00;;;13.00
9985;BMP180;16737;50.932;6.780;2024-03-02T03:51:45;98709.00;;;13.00
9985;BMP180;16737;50.932;6.780;2024-03-02T03:54:13;98709.00;;;13.00
9985;BMP180;16737;50.932;6.780;2024-03-02T03:56:40;98706.00;;;13.00
9985;BMP180;16737;50.932;6.780;2024-03-02T03:59:07;98718.00;;;13.00
9985;BMP180;16737;50.932;6.780;2024-03-02T04:01:34;98724.00;;;13.00
9985;BMP180;16737;50.932;6.780;2024-03-02T04:04:01;98724.00;;;13.00
9985;BMP180;16737;50.932;6.780;2024-03-02T04:06:30;98728.00;;;13.00
9985;BMP180;16737;50.932;6.780;2024-03-02T04:08:57;98720.00;;;12.90
9985;BMP180;16737;50.932;6.780;2024-03-02T04:11:24;98719.00;;;12.90
9985;BMP180;16737;50.932;6.780;2024-03-02T04:13:52;98721.00;;;12.90
9985;BMP180;16737;50.932;6.780;2024-03-02T04:16:19;98729.00;;;12.90
9985;BMP180;16737;50.932;6.780;2024-03-02T04:18:45;98702.00;;;12.90
9985;BMP180;16737;50.932;6.780;2024-03-02T04:21:12;98723.00;;;12.80
9985;BMP180;16737;50.932;6.780;2024-03-02T04:23:41;98726.00;;;12.80
9985;BMP180;16737;50.932;6.780;2024-03-02T04:26:07;98727.00;;;12.80
9985;BMP180;16737;50.932;6.780;2024-03-02T04:28:34;98729.00;;;12.70
9985;BMP180;16737;50.932;6.780;2024-03-02T04:31:01;98725.00;;;12.70
9985;BMP180;16737;50.932;6.780;2024-03-02T04:33:28;98731.00;;;12.60
9985;BMP180;16737;50.932;6.780;2024-03-02T04:35:55;98740.00;;;12.60
9985;BMP180;16737;50.932;6.780;2024-03-02T04:38:23;98734.00;;;12.60
9985;BMP180;16737;50.932;6.780;2024-03-02T04:40:51;98740.00;;;12.60
9985;BMP180;16737;50.932;6.780;2024-03-02T04:43:18;98734.00;;;12.60
9985;BMP180;16737;50.932;6.780;2024-03-02T04:45:45;98745.00;;;12.60
9985;BMP180;16737;50.932;6.780;2024-03-02T04:48:13;98742.00;;;12.60
9985;BMP180;16737;50.932;6.780;2024-03-02T04:50:40;98723.00;;;12.50
9985;BMP180;16737;50.932;6.780;2024-03-02T04:53:07;98726.00;;;12.50
9985;BMP180;16737;50.932;6.780;2024-03-02T04:55:34;98725.00;;;12.50
9985;BMP180;16737;50.932;6.780;2024-03-02T04:58:46;98730.00;;;12.40
9985;BMP180;16737;50.932;6.780;2024-03-02T05:01:13;98736.00;;;12.40
9985;BMP180;16737;50.932;6.780;2024-03-02T05:03:42;98741.00;;;12.40
9985;BMP180;16737;50.932;6.780;2024-03-02T05:06:09;98734.00;;;12.40
9985;BMP180;16737;50.932;6.780;2024-03-02T05:08:36;98733.00;;;12.40
9985;BMP180;16737;50.932;6.780;2024-03-02T05:11:03;98720.00;;;12.40
9985;BMP180;16737;50.932;6.780;2024-03-02T05:13:46;98726.00;;;12.40
9985;BMP180;16737;50.932;6.780;2024-03-02T05:16:13;98729.00;;;12.40
9985;BMP180;16737;50.932;6.780;2024-03-02T05:18:40;98731.00;;;12.40
9985;BMP180;16737;50.932;6.780;2024-03-02T05:21:07;98731.00;;;12.40
9985;BMP180;16737;50.932;6.780;2024-03-02T05:23:34;98729.00;;;12.40
9985;BMP180;16737;50.932;6.780;2024-03-02T05:26:01;98740.00;;;12.40
9985;BMP180;16737;50.932;6.780;2024-03-02T05:28:28;98742.00;;;12.40
9985;BMP180;16737;50.932;6.780;2024-03-02T05:30:56;98733.00;;;12.40
9985;BMP180;16737;50.932;6.780;2024-03-02T05:33:23;98735.00;;;12.40
9985;BMP180;16737;50.932;6.780;2024-03-02T05:35:50;98740.00;;;12.50
9985;BMP180;16737;50.932;6.780;2024-03-02T05:38:17;98738.00;;;12.50
9985;BMP180;16737;50.932;6.780;2024-03-02T05:40:44;98737.00;;;12.50
9985;BMP180;16737;50.932;6.780;2024-03-02T05:43:11;98742.00;;;12.50
9985;BMP180;16737;50.932;6.780;2024-03-02T05:45:39;98728.00;;;12.50
9985;BMP180;16737;50.932;6.780;2024-03-02T05:48:08;98737.00;;;12.40
9985;BMP180;16737;50.932;6.780;2024-03-02T05:50:35;98729.00;;;12.40
9985;BMP180;16737;50.932;6.780;2024-03-02T05:53:03;98742.00;;;12.40
9985;BMP180;16737;50.932;6.780;2024-03-02T05:55:30;98736.00;;;12.40
9985;BMP180;16737;50.932;6.780;2024-03-02T05:57:57;98735.00;;;12.40
9985;BMP180;16737;50.932;6.780;2024-03-02T06:00:41;98741.00;;;12.40
9985;BMP180;16737;50.932;6.780;2024-03-02T06:03:09;98749.00;;;12.40
9985;BMP180;16737;50.932;6.780;2024-03-02T06:05:36;98748.00;;;12.40
9985;BMP180;16737;50.932;6.780;2024-03-02T06:08:04;98751.00;;;12.40
9985;BMP180;16737;50.932;6.780;2024-03-02T06:10:31;98742.00;;;12.30
9985;BMP180;16737;50.932;6.780;2024-03-02T06:12:58;98738.00;;;12.30
9985;BMP180;16737;50.932;6.780;2024-03-02T06:15:25;98741.00;;;12.20
9985;BMP180;16737;50.932;6.780;2024-03-02T06:17:55;98756.00;;;12.10
9985;BMP180;16737;50.932;6.780;2024-03-02T06:20:24;98764.00;;;12.00
9985;BMP180;16737;50.932;6.780;2024-03-02T06:22:52;98759.00;;;11.90
9985;BMP180;16737;50.932;6.780;2024-03-02T06:25:19;98777.00;;;11.80
9985;BMP180;16737;50.932;6.780;2024-03-02T06:27:46;98781.00;;;11.80
9985;BMP180;16737;50.932;6.780;2024-03-02T06:30:14;98755.00;;;11.90
9985;BMP180;16737;50.932;6.780;2024-03-02T06:32:41;98774.00;;;11.80
9985;BMP180;16737;50.932;6.780;2024-03-02T06:35:08;98765.00;;;11.90
9985;BMP180;16737;50.932;6.780;2024-03-02T06:37:38;98772.00;;;11.80
9985;BMP180;16737;50.932;6.780;2024-03-02T06:40:07;98752.00;;;11.90
9985;BMP180;16737;50.932;6.780;2024-03-02T06:42:35;98772.00;;;11.90
9985;BMP180;16737;50.932;6.780;2024-03-02T06:45:02;98780.00;;;12.00
9985;BMP180;16737;50.932;6.780;2024-03-02T06:47:30;98773.00;;;12.00
9985;BMP180;16737;50.932;6.780;2024-03-02T06:49:57;98776.00;;;12.00
9985;BMP180;16737;50.932;6.780;2024-03-02T06:52:24;98776.00;;;12.10
9985;BMP180;16737;50.932;6.780;2024-03-02T06:54:53;98793.00;;;12.10
9985;BMP180;16737;50.932;6.780;2024-03-02T06:57:20;98799.00;;;12.10
9985;BMP180;16737;50.932;6.780;2024-03-02T06:59:47;98799.00;;;12.00
9985;BMP180;16737;50.932;6.780;2024-03-02T07:02:16;98780.00;;;12.00
9985;BMP180;16737;50.932;6.780;2024-03-02T07:04:43;98791.00;;;11.90
9985;BMP180;16737;50.932;6.780;2024-03-02T07:07:11;98801.00;;;11.90
9985;BMP180;16737;50.932;6.780;2024-03-02T07:09:38;98804.00;;;11.80
9985;BMP180;16737;50.932;6.780;2024-03-02T07:12:07;98801.00;;;11.80
9985;BMP180;16737;50.932;6.780;2024-03-02T07:14:35;98803.00;;;11.80
9985;BMP180;16737;50.932;6.780;2024-03-02T07:17:19;98792.00;;;11.80
9985;BMP180;16737;50.932;6.780;2024-03-02T07:19:46;98793.00;;;11.90
9985;BMP180;16737;50.932;6.780;2024-03-02T07:22:13;98812.00;;;11.90
9985;BMP180;16737;50.932;6.780;2024-03-02T07:24:41;98820.00;;;11.90
9985;BMP180;16737;50.932;6.780;2024-03-02T07:27:11;98816.00;;;12.00
9985;BMP180;16737;50.932;6.780;2024-03-02T07:29:39;98792.00;;;12.00
9985;BMP180;16737;50.932;6.780;2024-03-02T07:32:07;98814.00;;;12.00
9985;BMP180;16737;50.932;6.780;2024-03-02T07:34:34;98811.00;;;12.10
9985;BMP180;16737;50.932;6.780;2024-03-02T07:37:02;98818.00;;;12.10
9985;BMP180;16737;50.932;6.780;2024-03-02T07:39:30;98822.00;;;12.10
9985;BMP180;16737;50.932;6.780;2024-03-02T07:41:57;98808.00;;;12.10
9985;BMP180;16737;50.932;6.780;2024-03-02T07:44:25;98818.00;;;12.20
9985;BMP180;16737;50.932;6.780;2024-03-02T07:46:52;98811.00;;;12.20
9985;BMP180;16737;50.932;6.780;2024-03-02T07:49:20;98826.00;;;12.20
9985;BMP180;16737;50.932;6.780;2024-03-02T07:51:48;98832.00;;;12.30
9985;BMP180;16737;50.932;6.780;2024-03-02T07:54:15;98843.00;;;12.40
9985;BMP180;16737;50.932;6.780;2024-03-02T07:56:42;98853.00;;;12.50
9985;BMP180;16737;50.932;6.780;2024-03-02T07:59:09;98859.00;;;12.60
9985;BMP180;16737;50.932;6.780;2024-03-02T08:01:37;98858.00;;;12.60
9985;BMP180;16737;50.932;6.780;2024-03-02T08:04:04;98856.00;;;12.70
9985;BMP180;16737;50.932;6.780;2024-03-02T08:06:31;98856.00;;;12.90
9985;BMP180;16737;50.932;6.780;2024-03-02T08:09:00;98858.00;;;13.00
9985;BMP180;16737;50.932;6.780;2024-03-02T08:11:27;98852.00;;;13.10
9985;BMP180;16737;50.932;6.780;2024-03-02T08:13:55;98855.00;;;13.20
9985;BMP180;16737;50.932;6.780;2024-03-02T08:16:23;98861.00;;;13.30
9985;BMP180;16737;50.932;6.780;2024-03-02T08:18:53;98868.00;;;13.40
9985;BMP180;16737;50.932;6.780;2024-03-02T08:21:23;98872.00;;;13.50
9985;BMP180;16737;50.932;6.780;2024-03-02T08:23:50;98870.00;;;13.60
9985;BMP180;16737;50.932;6.780;2024-03-02T08:26:17;98866.00;;;13.60
9985;BMP180;16737;50.932;6.780;2024-03-02T08:28:44;98864.00;;;13.70
9985;BMP180;16737;50.932;6.780;2024-03-02T08:31:11;98872.00;;;13.80
9985;BMP180;16737;50.932;6.780;2024-03-02T08:33:38;98858.00;;;13.90
9985;BMP180;16737;50.932;6.780;2024-03-02T08:36:08;98860.00;;;13.90
9985;BMP180;16737;50.932;6.780;2024-03-02T08:38:35;98856.00;;;14.00
9985;BMP180;16737;50.932;6.780;2024-03-02T08:41:03;98853.00;;;14.00
9985;BMP180;16737;50.932;6.780;2024-03-02T08:43:30;98857.00;;;14.00
9985;BMP180;16737;50.932;6.780;2024-03-02T08:45:58;98848.00;;;14.00
9985;BMP180;16737;50.932;6.780;2024-03-02T08:48:25;98846.00;;;14.10
9985;BMP180;16737;50.932;6.780;2024-03-02T08:50:52;98844.00;;;14.20
9985;BMP180;16737;50.932;6.780;2024-03-02T08:53:20;98864.00;;;14.20
9985;BMP180;16737;50.932;6.780;2024-03-02T08:55:47;98861.00;;;14.30
9985;BMP180;16737;50.932;6.780;2024-03-02T08:58:14;98862.00;;;14.30
9985;BMP180;16737;50.932;6.780;2024-03-02T09:00:42;98861.00;;;14.40
9985;BMP180;16737;50.932;6.780;2024-03-02T09:03:09;98859.00;;;14.40
9985;BMP180;16737;50.932;6.780;2024-03-02T09:05:36;98874.00;;;14.50
9985;BMP180;16737;50.932;6.780;2024-03-02T09:08:04;98880.00;;;14.60
9985;BMP180;16737;50.932;6.780;2024-03-02T09:10:34;98884.00;;;14.60
9985;BMP180;16737;50.932;6.780;2024-03-02T09:13:01;98868.00;;;14.70
9985;BMP180;16737;50.932;6.780;2024-03-02T09:15:28;98884.00;;;14.70
9985;BMP180;16737;50.932;6.780;2024-03-02T09:17:55;98872.00;;;14.70
9985;BMP180;16737;50.932;6.780;2024-03-02T09:20:22;98867.00;;;14.70
9985;BMP180;16737;50.932;6.780;2024-03-02T09:22:49;98880.00;;;14.80
9985;BMP180;16737;50.932;6.780;2024-03-02T09:25:16;98875.00;;;14.80
9985;BMP180;16737;50.932;6.780;2024-03-02T09:27:44;98877.00;;;14.90
9985;BMP180;16737;50.932;6.780;2024-03-02T09:30:13;98872.00;;;14.90
9985;BMP180;16737;50.932;6.780;2024-03-02T09:32:41;98858.00;;;15.00
9985;BMP180;16737;50.932;6.780;2024-03-02T09:35:08;98859.00;;;15.10
9985;BMP180;16737;50.932;6.780;2024-03-02T09:37:35;98861.00;;;15.10
9985;BMP180;16737;50.932;6.780;2024-03-02T09:40:03;98877.00;;;15.00
9985;BMP180;16737;50.932;6.780;2024-03-02T09:42:32;98854.00;;;15.00
9985;BMP180;16737;50.932;6.780;2024-03-02T09:45:00;98862.00;;;15.00
9985;BMP180;16737;50.932;6.780;2024-03-02T09:47:28;98868.00;;;15.10
9985;BMP180;16737;50.932;6.780;2024-03-02T09:49:55;98863.00;;;15.10
9985;BMP180;16737;50.932;6.780;2024-03-02T09:52:22;98871.00;;;15.20
9985;BMP180;16737;50.932;6.780;2024-03-02T09:54:50;98860.00;;;15.20
9985;BMP180;16737;50.932;6.780;2024-03-02T09:57:17;98859.00;;;15.30
9985;BMP180;16737;50.932;6.780;2024-03-02T09:59:44;98864.00;;;15.40
9985;BMP180;16737;50.932;6.780;2024-03-02T10:02:13;98864.00;;;15.50
9985;BMP180;16737;50.932;6.780;2024-03-02T10:04:40;98861.00;;;15.60
9985;BMP180;16737;50.932;6.780;2024-03-02T10:07:11;98866.00;;;15.60
9985;BMP180;16737;50.932;6.780;2024-03-02T10:09:39;98863.00;;;15.70
9985;BMP180;16737;50.932;6.780;2024-03-02T10:12:09;98870.00;;;15.80
9985;BMP180;16737;50.932;6.780;2024-03-02T10:14:37;98865.00;;;15.90
9985;BMP180;16737;50.932;6.780;2024-03-02T10:17:06;98863.00;;;16.00
9985;BMP180;16737;50.932;6.780;2024-03-02T10:19:34;98863.00;;;16.10
9985;BMP180;16737;50.932;6.780;2024-03-02T10:22:04;98858.00;;;16.20
9985;BMP180;16737;50.932;6.780;2024-03-02T10:24:43;98868.00;;;16.30
9985;BMP180;16737;50.932;6.780;2024-03-02T10:27:16;98858.00;;;16.40
9985;BMP180;16737;50.932;6.780;2024-03-02T10:29:47;98858.00;;;16.40
9985;BMP180;16737;50.932;6.780;2024-03-02T10:32:15;98860.00;;;16.50
9985;BMP180;16737;50.932;6.780;2024-03-02T10:34:46;98859.00;;;16.50
9985;BMP180;16737;50.932;6.780;2024-03-02T10:37:15;98855.00;;;16.50
9985;BMP180;16737;50.932;6.780;2024-03-02T10:39:43;98869.00;;;16.60
9985;BMP180;16737;50.932;6.780;2024-03-02T10:42:10;98861.00;;;16.60
9985;BMP180;16737;50.932;6.780;2024-03-02T10:44:39;98852.00;;;16.70
9985;BMP180;16737;50.932;6.780;2024-03-02T10:47:06;98856.00;;;16.70
9985;BMP180;16737;50.932;6.780;2024-03-02T10:49:36;98857.00;;;16.70
9985;BMP180;16737;50.932;6.780;2024-03-02T10:52:06;98842.00;;;16.60
9985;BMP180;16737;50.932;6.780;2024-03-02T10:54:35;98845.00;;;16.60
9985;BMP180;16737;50.932;6.780;2024-03-02T10:57:07;98846.00;;;16.70
9985;BMP180;16737;50.932;6.780;2024-03-02T10:59:36;98847.00;;;16.70
9985;BMP180;16737;50.932;6.780;2024-03-02T11:02:06;98836.00;;;16.80
9985;BMP180;16737;50.932;6.780;2024-03-02T11:04:38;98832.00;;;16.90
9985;BMP180;16737;50.932;6.780;2024-03-02T11:07:08;98829.00;;;16.90
9985;BMP180;16737;50.932;6.780;2024-03-02T11:09:41;98830.00;;;17.00
9985;BMP180;16737;50.932;6.780;2024-03-02T11:12:15;98840.00;;;17.00
9985;BMP180;16737;50.932;6.780;2024-03-02T11:14:46;98828.00;;;17.10
9985;BMP180;16737;50.932;6.780;2024-03-02T11:17:15;98837.00;;;17.10
9985;BMP180;16737;50.932;6.780;2024-03-02T11:19:44;98843.00;;;17.20
9985;BMP180;16737;50.932;6.780;2024-03-02T11:22:14;98844.00;;;17.20
9985;BMP180;16737;50.932;6.780;2024-03-02T11:24:49;98839.00;;;17.30
9985;BMP180;16737;50.932;6.780;2024-03-02T11:27:59;98844.00;;;17.30
9985;BMP180;16737;50.932;6.780;2024-03-02T11:30:56;98847.00;;;17.30
9985;BMP180;16737;50.932;6.780;2024-03-02T11:33:25;98831.00;;;17.40
9985;BMP180;16737;50.932;6.780;2024-03-02T11:35:57;98825.00;;;17.40
9985;BMP180;16737;50.932;6.780;2024-03-02T11:38:35;98826.00;;;17.40
9985;BMP180;16737;50.932;6.780;2024-03-02T11:41:06;98836.00;;;17.50
9985;BMP180;16737;50.932;6.780;2024-03-02T11:43:38;98836.00;;;17.60
9985;BMP180;16737;50.932;6.780;2024-03-02T11:46:06;98833.00;;;17.60
9985;BMP180;16737;50.932;6.780;2024-03-02T11:48:35;98833.00;;;17.70
9985;BMP180;16737;50.932;6.780;2024-03-02T11:51:04;98839.00;;;17.70
9985;BMP180;16737;50.932;6.780;2024-03-02T11:53:31;98833.00;;;17.70
9985;BMP180;16737;50.932;6.780;2024-03-02T11:56:02;98838.00;;;17.70
9985;BMP180;16737;50.932;6.780;2024-03-02T11:58:33;98827.00;;;17.70
9985;BMP180;16737;50.932;6.780;2024-03-02T12:01:03;98819.00;;;17.70
9985;BMP180;16737;50.932;6.780;2024-03-02T12:03:34;98821.00;;;17.70
9985;BMP180;16737;50.932;6.780;2024-03-02T12:06:01;98811.00;;;17.70
9985;BMP180;16737;50.932;6.780;2024-03-02T12:08:29;98810.00;;;17.70
9985;BMP180;16737;50.932;6.780;2024-03-02T12:10:58;98807.00;;;17.70
9985;BMP180;16737;50.932;6.780;2024-03-02T12:13:27;98799.00;;;17.70
9985;BMP180;16737;50.932;6.780;2024-03-02T12:15:55;98786.00;;;17.70
9985;BMP180;16737;50.932;6.780;2024-03-02T12:18:22;98787.00;;;17.70
9985;BMP180;16737;50.932;6.780;2024-03-02T12:20:51;98779.00;;;17.70
9985;BMP180;16737;50.932;6.780;2024-03-02T12:23:22;98763.00;;;17.70
9985;BMP180;16737;50.932;6.780;2024-03-02T12:25:49;98774.00;;;17.70
9985;BMP180;16737;50.932;6.780;2024-03-02T12:28:17;98764.00;;;17.70
9985;BMP180;16737;50.932;6.780;2024-03-02T12:30:46;98753.00;;;17.60
9985;BMP180;16737;50.932;6.780;2024-03-02T12:33:14;98766.00;;;17.60
9985;BMP180;16737;50.932;6.780;2024-03-02T12:35:41;98769.00;;;17.50
9985;BMP180;16737;50.932;6.780;2024-03-02T12:38:09;98762.00;;;17.50
9985;BMP180;16737;50.932;6.780;2024-03-02T12:40:36;98760.00;;;17.40
9985;BMP180;16737;50.932;6.780;2024-03-02T12:43:05;98756.00;;;17.40
9985;BMP180;16737;50.932;6.780;2024-03-02T12:45:33;98770.00;;;17.40
9985;BMP180;16737;50.932;6.780;2024-03-02T12:48:04;98765.00;;;17.40
9985;BMP180;16737;50.932;6.780;2024-03-02T12:50:32;98762.00;;;17.30
9985;BMP180;16737;50.932;6.780;2024-03-02T12:52:59;98768.00;;;17.30
9985;BMP180;16737;50.932;6.780;2024-03-02T12:55:26;98760.00;;;17.20
9985;BMP180;16737;50.932;6.780;2024-03-02T12:57:54;98762.00;;;17.20
9985;BMP180;16737;50.932;6.780;2024-03-02T13:00:22;98761.00;;;17.20
9985;BMP180;16737;50.932;6.780;2024-03-02T13:02:50;98769.00;;;17.20
9985;BMP180;16737;50.932;6.780;2024-03-02T13:05:18;98771.00;;;17.20
9985;BMP180;16737;50.932;6.780;2024-03-02T13:07:47;98756.00;;;17.20
9985;BMP180;16737;50.932;6.780;2024-03-02T13:10:14;98775.00;;;17.20
9985;BMP180;16737;50.932;6.780;2024-03-02T13:12:42;98757.00;;;17.20
9985;BMP180;16737;50.932;6.780;2024-03-02T13:15:09;98749.00;;;17.30
9985;BMP180;16737;50.932;6.780;2024-03-02T13:17:36;98748.00;;;17.30
9985;BMP180;16737;50.932;6.780;2024-03-02T13:20:05;98749.00;;;17.30
9985;BMP180;16737;50.932;6.780;2024-03-02T13:22:37;98741.00;;;17.30
9985;BMP180;16737;50.932;6.780;2024-03-02T13:25:05;98750.00;;;17.30
9985;BMP180;16737;50.932;6.780;2024-03-02T13:27:34;98755.00;;;17.30
9985;BMP180;16737;50.932;6.780;2024-03-02T13:30:03;98752.00;;;17.20
9985;BMP180;16737;50.932;6.780;2024-03-02T13:32:31;98751.00;;;17.20
9985;BMP180;16737;50.932;6.780;2024-03-02T13:34:58;98751.00;;;17.20
9985;BMP180;16737;50.932;6.780;2024-03-02T13:37:25;98742.00;;;17.10
9985;BMP180;16737;50.932;6.780;2024-03-02T13:39:54;98749.00;;;17.10
9985;BMP180;16737;50.932;6.780;2024-03-02T13:42:21;98740.00;;;17.10
9985;BMP180;16737;50.932;6.780;2024-03-02T13:44:49;98734.00;;;17.10
9985;BMP180;16737;50.932;6.780;2024-03-02T13:47:17;98731.00;;;17.10
9985;BMP180;16737;50.932;6.780;2024-03-02T13:49:44;98734.00;;;17.10
9985;BMP180;16737;50.932;6.780;2024-03-02T13:52:12;98720.00;;;17.10
9985;BMP180;16737;50.932;6.780;2024-03-02T13:54:40;98727.00;;;17.10
9985;BMP180;16737;50.932;6.780;2024-03-02T13:57:11;98722.00;;;17.10
9985;BMP180;16737;50.932;6.780;2024-03-02T13:59:38;98723.00;;;17.10
9985;BMP180;16737;50.932;6.780;2024-03-02T14:02:06;98710.00;;;17.10
9985;BMP180;16737;50.932;6.780;2024-03-02T14:04:35;98721.00;;;17.10
9985;BMP180;16737;50.932;6.780;2024-03-02T14:07:03;98716.00;;;17.10
9985;BMP180;16737;50.932;6.780;2024-03-02T14:09:32;98712.00;;;17.10
9985;BMP180;16737;50.932;6.780;2024-03-02T14:11:59;98709.00;;;17.10
9985;BMP180;16737;50.932;6.780;2024-03-02T14:14:28;98720.00;;;17.10
9985;BMP180;16737;50.932;6.780;2024-03-02T14:16:55;98716.00;;;17.10
9985;BMP180;16737;50.932;6.780;2024-03-02T14:19:26;98714.00;;;17.20
9985;BMP180;16737;50.932;6.780;2024-03-02T14:21:53;98713.00;;;17.20
9985;BMP180;16737;50.932;6.780;2024-03-02T14:24:20;98698.00;;;17.20
9985;BMP180;16737;50.932;6.780;2024-03-02T14:26:49;98692.00;;;17.30
9985;BMP180;16737;50.932;6.780;2024-03-02T14:29:16;98697.00;;;17.30